createdAt,value
2017-09-15T00:00:52.077Z,99686
2017-09-15T00:03:22.443Z,99694
2017-09-15T00:05:52.337Z,99691
2017-09-15T00:08:22.345Z,99698
2017-09-15T00:10:52.218Z,99700
2017-09-15T00:13:22.092Z,99702
2017-09-15T00:15:52.318Z,99699
2017-09-15T00:18:22.183Z,99701
2017-09-15T00:20:52.068Z,99706
2017-09-15T00:23:21.923Z,99709
2017-09-15T00:25:51.782Z,99720
2017-09-15T00:28:22.106Z,99717
2017-09-15T00:30:52.020Z,99718
2017-09-15T00:33:22.236Z,99729
2017-09-15T00:35:52.114Z,99731
2017-09-15T00:38:22.354Z,99741
2017-09-15T00:40:52.245Z,99742
2017-09-15T00:43:22.157Z,99756
2017-09-15T00:45:52.012Z,99756
2017-09-15T00:48:21.904Z,99750
2017-09-15T00:50:52.105Z,99743
2017-09-15T00:53:21.978Z,99751
2017-09-15T00:55:52.325Z,99751
2017-09-15T00:58:22.218Z,99754
2017-09-15T01:00:52.537Z,99759
2017-09-15T01:03:22.471Z,99771
2017-09-15T01:05:52.771Z,99774
2017-09-15T01:08:22.689Z,99772
2017-09-15T01:10:52.902Z,99772
2017-09-15T01:13:22.788Z,99777
2017-09-15T01:15:53.231Z,99779
2017-09-15T01:18:23.110Z,99774
2017-09-15T01:20:53.352Z,99781
2017-09-15T01:23:23.229Z,99785
2017-09-15T01:25:53.159Z,99786
2017-09-15T01:28:23.020Z,99788
2017-09-15T01:30:52.976Z,99776
2017-09-15T01:33:23.323Z,99785
2017-09-15T01:35:53.337Z,99797
2017-09-15T01:38:23.587Z,99794
2017-09-15T01:40:53.445Z,99798
2017-09-15T01:43:23.698Z,99804
2017-09-15T01:45:53.580Z,99810
2017-09-15T01:48:23.823Z,99820
2017-09-15T01:50:53.707Z,99827
2017-09-15T01:53:24.075Z,99823
2017-09-15T01:55:53.951Z,99827
2017-09-15T01:58:24.199Z,99827
2017-09-15T02:00:54.087Z,99831
2017-09-15T02:03:24.336Z,99834
2017-09-15T02:05:54.261Z,99840
2017-09-15T02:08:24.177Z,99847
2017-09-15T02:10:54.080Z,99852
2017-09-15T02:13:23.973Z,99853
2017-09-15T02:15:54.216Z,99853
2017-09-15T02:18:24.088Z,99858
2017-09-15T02:20:54.458Z,99857
2017-09-15T02:23:24.387Z,99859
2017-09-15T02:25:54.695Z,99865
2017-09-15T02:28:24.631Z,99869
2017-09-15T02:30:54.903Z,99867
2017-09-15T02:33:24.786Z,99857
2017-09-15T02:35:55.041Z,99875
2017-09-15T02:38:24.950Z,99866
2017-09-15T02:40:55.211Z,99861
2017-09-15T02:43:25.087Z,99874
2017-09-15T02:45:55.293Z,99884
2017-09-15T02:48:25.189Z,99881
2017-09-15T02:50:55.095Z,99883
2017-09-15T02:53:24.973Z,99891
2017-09-15T02:55:54.853Z,99892
2017-09-15T02:58:25.101Z,99907
2017-09-15T03:00:54.962Z,99901
2017-09-15T03:03:25.329Z,99896
2017-09-15T03:05:55.200Z,99899
2017-09-15T03:08:25.516Z,99909
2017-09-15T03:10:55.442Z,99911
2017-09-15T03:13:25.710Z,99905
2017-09-15T03:15:55.583Z,99917
2017-09-15T03:18:25.833Z,99918
2017-09-15T03:20:55.879Z,99913
2017-09-15T03:23:26.287Z,99912
2017-09-15T03:25:56.174Z,99923
2017-09-15T03:28:26.421Z,99925
2017-09-15T03:30:56.303Z,99920
2017-09-15T03:33:26.184Z,99930
2017-09-15T03:35:56.087Z,99930
2017-09-15T03:38:25.998Z,99934
2017-09-15T03:40:55.909Z,99937
2017-09-15T03:43:25.777Z,99942
2017-09-15T03:45:56.058Z,99943
2017-09-15T03:48:25.984Z,99940
2017-09-15T03:50:56.390Z,99948
2017-09-15T03:53:26.276Z,99948
2017-09-15T03:55:56.156Z,99949
2017-09-15T03:58:26.092Z,99951
2017-09-15T04:00:55.957Z,99968
2017-09-15T04:03:26.246Z,99959
2017-09-15T04:05:56.186Z,99966
2017-09-15T04:08:26.473Z,99974
2017-09-15T04:10:56.411Z,99971
2017-09-15T04:13:26.739Z,99976
2017-09-15T04:15:56.667Z,99978
2017-09-15T04:18:27.043Z,99985
2017-09-15T04:20:56.914Z,99976
2017-09-15T04:23:27.183Z,99988
2017-09-15T04:25:57.164Z,99981
2017-09-15T04:28:27.438Z,99979
2017-09-15T04:30:57.311Z,99975
2017-09-15T04:33:27.225Z,99884
2017-09-15T04:35:57.095Z,99981
2017-09-15T04:38:27.156Z,99986
2017-09-15T04:40:57.066Z,99982
2017-09-15T04:43:27.011Z,99982
2017-09-15T04:45:56.952Z,99965
2017-09-15T04:48:27.046Z,99985
2017-09-15T04:50:57.388Z,99978
2017-09-15T04:53:27.281Z,99986
2017-09-15T04:55:57.173Z,99981
2017-09-15T04:58:27.059Z,99980
2017-09-15T05:00:56.948Z,99984
2017-09-15T05:03:26.851Z,99996
2017-09-15T05:05:56.784Z,99993
2017-09-15T05:08:27.022Z,99992
2017-09-15T05:10:56.939Z,100002
2017-09-15T05:13:27.249Z,99994
2017-09-15T05:15:57.211Z,99977
2017-09-15T05:18:27.539Z,100002
2017-09-15T05:20:57.454Z,99991
2017-09-15T05:23:27.791Z,99994
2017-09-15T05:25:57.794Z,99994
2017-09-15T05:28:28.135Z,99988
2017-09-15T05:30:58.032Z,99997
2017-09-15T05:33:28.419Z,99998
2017-09-15T05:35:58.291Z,99989
2017-09-15T05:38:28.771Z,99998
2017-09-15T05:40:58.682Z,99998
2017-09-15T05:43:29.958Z,99997
2017-09-15T05:45:59.984Z,100002
2017-09-15T05:48:30.402Z,99994
2017-09-15T05:51:00.298Z,100003
2017-09-15T05:53:30.539Z,100010
2017-09-15T05:56:00.613Z,100010
2017-09-15T05:58:30.966Z,100014
2017-09-15T06:01:00.865Z,100019
2017-09-15T06:03:31.100Z,100021
2017-09-15T06:06:01.020Z,100019
2017-09-15T06:08:31.367Z,100016
2017-09-15T06:11:01.282Z,100020
2017-09-15T06:13:31.681Z,100022
2017-09-15T06:16:01.548Z,100026
2017-09-15T06:18:31.878Z,100026
2017-09-15T06:21:01.791Z,100029
2017-09-15T06:23:32.519Z,100022
2017-09-15T06:26:02.513Z,100032
2017-09-15T06:28:32.822Z,100043
2017-09-15T06:31:02.774Z,100042
2017-09-15T06:33:33.099Z,100043
2017-09-15T06:36:03.098Z,100036
2017-09-15T06:38:33.375Z,100052
2017-09-15T06:41:03.286Z,100049
2017-09-15T06:43:33.212Z,100054
2017-09-15T06:46:03.078Z,100029
2017-09-15T06:48:32.964Z,100046
2017-09-15T06:51:03.236Z,100056
2017-09-15T06:53:33.131Z,100056
2017-09-15T06:56:03.456Z,100048
2017-09-15T06:58:33.379Z,100061
2017-09-15T07:01:03.688Z,100058
2017-09-15T07:03:33.555Z,100062
2017-09-15T07:06:03.898Z,100070
2017-09-15T07:08:33.787Z,99951
2017-09-15T07:11:04.182Z,99920
2017-09-15T07:13:34.159Z,100088
2017-09-15T07:16:04.473Z,100085
2017-09-15T07:18:34.335Z,100082
2017-09-15T07:21:04.228Z,100087
2017-09-15T07:23:34.164Z,100093
2017-09-15T07:26:04.057Z,100086
2017-09-15T07:28:34.328Z,100085
2017-09-15T07:31:04.212Z,100090
2017-09-15T07:33:34.090Z,100091
2017-09-15T07:36:03.953Z,100078
2017-09-15T07:38:33.984Z,100107
2017-09-15T07:41:05.633Z,100101
2017-09-15T07:43:35.520Z,100094
2017-09-15T07:46:05.800Z,100110
2017-09-15T07:48:35.745Z,100102
2017-09-15T07:51:05.992Z,100108
2017-09-15T07:53:35.940Z,100086
2017-09-15T07:56:06.208Z,100121
2017-09-15T07:58:36.105Z,100115
2017-09-15T08:01:06.337Z,100107
2017-09-15T08:03:36.320Z,100123
2017-09-15T08:06:06.289Z,100120
2017-09-15T08:08:36.217Z,100115
2017-09-15T08:11:06.120Z,100113
2017-09-15T08:13:36.556Z,100110
2017-09-15T08:16:06.471Z,100115
2017-09-15T08:18:36.983Z,100116
2017-09-15T08:21:06.910Z,100109
2017-09-15T08:23:37.240Z,100118
2017-09-15T08:26:07.118Z,100127
2017-09-15T08:28:37.428Z,100124
2017-09-15T08:31:07.376Z,100126
2017-09-15T08:33:37.588Z,100126
2017-09-15T08:36:07.462Z,100128
2017-09-15T08:38:37.700Z,100129
2017-09-15T08:41:07.597Z,100127
2017-09-15T08:43:37.891Z,100128
2017-09-15T08:46:07.795Z,100117
2017-09-15T08:48:38.091Z,100121
2017-09-15T08:51:08.026Z,100119
2017-09-15T08:53:38.333Z,100126
2017-09-15T08:56:08.186Z,100119
2017-09-15T08:58:38.378Z,100115
2017-09-15T09:01:08.286Z,100116
2017-09-15T09:03:38.168Z,100117
2017-09-15T09:06:08.208Z,100115
2017-09-15T09:08:38.138Z,100106
2017-09-15T09:11:08.378Z,100115
2017-09-15T09:13:39.222Z,100120
2017-09-15T09:16:09.514Z,100120
2017-09-15T09:18:39.396Z,100111
2017-09-15T09:21:09.630Z,99950
2017-09-15T09:23:39.507Z,100127
2017-09-15T09:26:09.777Z,100120
2017-09-15T09:28:39.659Z,100117
2017-09-15T09:31:09.876Z,100127
2017-09-15T09:33:39.763Z,100105
2017-09-15T09:36:10.039Z,100057
2017-09-15T09:38:41.487Z,100125
2017-09-15T09:41:11.698Z,100123
2017-09-15T09:43:41.575Z,100130
2017-09-15T09:46:11.819Z,100142
2017-09-15T09:48:41.718Z,100139
2017-09-15T09:51:12.006Z,100135
2017-09-15T09:53:41.921Z,100126
2017-09-15T09:56:12.187Z,100125
2017-09-15T09:58:42.090Z,100123
2017-09-15T10:01:12.498Z,100128
2017-09-15T10:03:42.601Z,100129
2017-09-15T10:06:12.973Z,100128
2017-09-15T10:08:42.854Z,100129
2017-09-15T10:11:13.159Z,100128
2017-09-15T10:13:43.094Z,100097
2017-09-15T10:16:13.419Z,100128
2017-09-15T10:18:43.378Z,100134
2017-09-15T10:21:13.323Z,100130
2017-09-15T10:23:43.566Z,100129
2017-09-15T10:26:13.462Z,100139
2017-09-15T10:28:43.719Z,100124
2017-09-15T10:31:13.610Z,100136
2017-09-15T10:33:43.999Z,100136
2017-09-15T10:36:13.868Z,100138
2017-09-15T10:38:44.209Z,100140
2017-09-15T10:41:14.118Z,100139
2017-09-15T10:43:44.397Z,100135
2017-09-15T10:46:14.247Z,100132
2017-09-15T10:48:44.176Z,100125
2017-09-15T10:51:14.525Z,100130
2017-09-15T10:53:44.394Z,100131
2017-09-15T10:56:15.257Z,100127
2017-09-15T10:58:50.757Z,100136
2017-09-15T11:01:21.058Z,100128
2017-09-15T11:03:50.927Z,100118
2017-09-15T11:06:21.178Z,100126
2017-09-15T11:08:51.042Z,100125
2017-09-15T11:11:21.288Z,100117
2017-09-15T11:13:51.174Z,100119
2017-09-15T11:16:21.156Z,100119
2017-09-15T11:18:51.626Z,100100
2017-09-15T11:21:21.587Z,100118
2017-09-15T11:23:51.959Z,100124
2017-09-15T11:26:22.576Z,100111
2017-09-15T11:28:52.852Z,100110
2017-09-15T11:31:22.729Z,100107
2017-09-15T11:33:52.984Z,100108
2017-09-15T11:36:22.856Z,100100
2017-09-15T11:38:53.330Z,100109
2017-09-15T11:41:23.331Z,100101
2017-09-15T11:43:53.697Z,100100
2017-09-15T11:46:23.647Z,100097
2017-09-15T11:48:54.020Z,100105
2017-09-15T11:51:23.910Z,100101
2017-09-15T11:53:54.263Z,100093
2017-09-15T11:56:24.290Z,100096
2017-09-15T11:58:54.561Z,100097
2017-09-15T12:01:24.461Z,100095
2017-09-15T12:03:54.720Z,100090
2017-09-15T12:06:24.621Z,100095
2017-09-15T12:08:55.576Z,100090
2017-09-15T12:11:25.447Z,100087
2017-09-15T12:13:56.040Z,100095
2017-09-15T12:16:25.927Z,100093
2017-09-15T12:18:56.218Z,100086
2017-09-15T12:21:26.139Z,100095
2017-09-15T12:23:56.552Z,100091
2017-09-15T12:26:26.427Z,100095
2017-09-15T12:28:56.714Z,100094
2017-09-15T12:31:26.586Z,100090
2017-09-15T12:33:56.826Z,100084
2017-09-15T12:36:26.703Z,100087
2017-09-15T12:38:56.916Z,100094
2017-09-15T12:41:26.804Z,100091
2017-09-15T12:43:57.044Z,100091
2017-09-15T12:46:27.034Z,100085
2017-09-15T12:48:57.341Z,100099
2017-09-15T12:51:27.219Z,100094
2017-09-15T12:53:57.477Z,100092
2017-09-15T12:56:27.377Z,100081
2017-09-15T12:58:57.261Z,100090
2017-09-15T13:01:27.693Z,100098
2017-09-15T13:03:59.247Z,100101
2017-09-15T13:06:29.510Z,100102
2017-09-15T13:08:59.365Z,100103
2017-09-15T13:11:29.662Z,100093
2017-09-15T13:13:59.695Z,100093
2017-09-15T13:16:29.986Z,100096
2017-09-15T13:19:00.327Z,100090
2017-09-15T13:21:30.666Z,100077
2017-09-15T13:24:00.668Z,100084
2017-09-15T13:26:30.997Z,100090
2017-09-15T13:29:00.974Z,100086
2017-09-15T13:31:31.333Z,100087
2017-09-15T13:34:01.390Z,100094
2017-09-15T13:36:31.596Z,100076
2017-09-15T13:39:01.634Z,100081
2017-09-15T13:41:32.131Z,100065
2017-09-15T13:44:02.132Z,100078
2017-09-15T13:46:32.463Z,100073
2017-09-15T13:49:02.402Z,100077
2017-09-15T13:51:32.687Z,100075
2017-09-15T13:54:02.608Z,100069
2017-09-15T13:56:32.929Z,100077
2017-09-15T13:59:02.842Z,100065
2017-09-15T14:01:33.149Z,100064
2017-09-15T14:04:03.461Z,100063
2017-09-15T14:06:33.698Z,100062
2017-09-15T14:09:03.622Z,100067
2017-09-15T14:11:33.999Z,100052
2017-09-15T14:14:03.919Z,100061
2017-09-15T14:16:34.318Z,100061
2017-09-15T14:19:04.228Z,100064
2017-09-15T14:21:34.492Z,100051
2017-09-15T14:24:04.354Z,100052
2017-09-15T14:26:34.432Z,100052
2017-09-15T14:29:04.358Z,100055
2017-09-15T14:31:35.184Z,100039
2017-09-15T14:34:05.463Z,100047
2017-09-15T14:36:35.339Z,100037
2017-09-15T14:39:05.246Z,100045
2017-09-15T14:41:35.145Z,100039
2017-09-15T14:44:05.046Z,100034
2017-09-15T14:46:36.092Z,100029
2017-09-15T14:49:06.002Z,100029
2017-09-15T14:51:36.379Z,100030
2017-09-15T14:54:06.389Z,100026
2017-09-15T14:56:37.383Z,100021
2017-09-15T14:59:07.299Z,100028
2017-09-15T15:01:37.316Z,100024
2017-09-15T15:04:07.664Z,100024
2017-09-15T15:06:37.658Z,100020
2017-09-15T15:09:07.930Z,100026
2017-09-15T15:11:37.912Z,100024
2017-09-15T15:14:08.216Z,100024
2017-09-15T15:16:38.337Z,100025
2017-09-15T15:19:08.708Z,100029
2017-09-15T15:21:38.611Z,100030
2017-09-15T15:24:08.930Z,100034
2017-09-15T15:26:38.823Z,100023
2017-09-15T15:29:09.128Z,100023
2017-09-15T15:31:39.072Z,99966
2017-09-15T15:34:09.383Z,99997
2017-09-15T15:36:39.280Z,100023
2017-09-15T15:39:09.210Z,100019
2017-09-15T15:41:39.137Z,100017
2017-09-15T15:44:09.065Z,100018
2017-09-15T15:46:38.968Z,100020
2017-09-15T15:49:08.995Z,100020
2017-09-15T15:51:38.887Z,100023
2017-09-15T15:54:08.844Z,100029
2017-09-15T15:56:38.988Z,100016
2017-09-15T15:59:08.922Z,100014
2017-09-15T16:01:39.067Z,100017
2017-09-15T16:04:08.958Z,100020
2017-09-15T16:06:39.243Z,100022
2017-09-15T16:09:09.136Z,100023
2017-09-15T16:11:39.437Z,100024
2017-09-15T16:14:09.520Z,100029
2017-09-15T16:16:39.800Z,100025
2017-09-15T16:19:09.732Z,100022
2017-09-15T16:21:40.126Z,100023
2017-09-15T16:24:10.022Z,100028
2017-09-15T16:26:40.312Z,100022
2017-09-15T16:29:10.228Z,100030
2017-09-15T16:31:40.735Z,100023
2017-09-15T16:34:10.705Z,100022
2017-09-15T16:36:41.006Z,100032
2017-09-15T16:39:16.580Z,100028
2017-09-15T16:41:52.457Z,100022
2017-09-15T16:44:27.993Z,100028
2017-09-15T16:47:03.924Z,100027
2017-09-15T16:49:33.355Z,100029
2017-09-15T16:52:03.818Z,100030
2017-09-15T16:54:33.758Z,100035
2017-09-15T16:57:04.108Z,100039
2017-09-15T16:59:34.079Z,100035
2017-09-15T17:02:04.364Z,100031
2017-09-15T17:04:34.404Z,100032
2017-09-15T17:07:04.656Z,100030
2017-09-15T17:09:34.622Z,100037
2017-09-15T17:12:04.998Z,100033
2017-09-15T17:14:34.977Z,100030
2017-09-15T17:17:05.430Z,100017
2017-09-15T17:19:35.351Z,100033
2017-09-15T17:22:05.652Z,100036
2017-09-15T17:24:35.614Z,100038
2017-09-15T17:27:05.879Z,100043
2017-09-15T17:29:35.801Z,100049
2017-09-15T17:32:06.083Z,100042
2017-09-15T17:34:35.987Z,100045
2017-09-15T17:37:06.405Z,100044
2017-09-15T17:39:37.318Z,100046
2017-09-15T17:42:07.677Z,100041
2017-09-15T17:44:37.575Z,99922
2017-09-15T17:47:07.903Z,100045
2017-09-15T17:49:37.878Z,100048
2017-09-15T17:52:08.204Z,100054
2017-09-15T17:54:38.162Z,100058
2017-09-15T17:57:08.612Z,100055
2017-09-15T17:59:38.683Z,100052
2017-09-15T18:02:09.194Z,100064
2017-09-15T18:04:39.164Z,100069
2017-09-15T18:07:09.415Z,100065
2017-09-15T18:09:39.375Z,100061
2017-09-15T18:12:09.700Z,100076
2017-09-15T18:14:39.621Z,100064
2017-09-15T18:17:09.867Z,100067
2017-09-15T18:19:39.783Z,100076
2017-09-15T18:22:10.131Z,100074
2017-09-15T18:24:40.098Z,100076
2017-09-15T18:27:10.412Z,100082
2017-09-15T18:29:40.406Z,100074
2017-09-15T18:32:10.668Z,100066
2017-09-15T18:34:40.596Z,100064
2017-09-15T18:37:10.930Z,100084
2017-09-15T18:39:40.875Z,100081
2017-09-15T18:42:11.234Z,100086
2017-09-15T18:44:41.180Z,100079
2017-09-15T18:47:11.604Z,100082
2017-09-15T18:49:41.587Z,100069
2017-09-15T18:52:11.901Z,100079
2017-09-15T18:54:41.919Z,100085
2017-09-15T18:57:12.321Z,100082
2017-09-15T18:59:42.309Z,100086
2017-09-15T19:02:12.665Z,100080
2017-09-15T19:04:42.645Z,100089
2017-09-15T19:07:13.027Z,100090
2017-09-15T19:09:43.008Z,100086
2017-09-15T19:12:13.330Z,100085
2017-09-15T19:14:43.262Z,100087
2017-09-15T19:17:13.594Z,100084
2017-09-15T19:19:43.672Z,100088
2017-09-15T19:22:14.056Z,100095
2017-09-15T19:24:44.006Z,100101
2017-09-15T19:27:14.389Z,100102
2017-09-15T19:29:44.388Z,100106
2017-09-15T19:32:14.847Z,100106
2017-09-15T19:34:44.841Z,100105
2017-09-15T19:37:15.147Z,100101
2017-09-15T19:39:45.995Z,100100
2017-09-15T19:42:16.502Z,100107
2017-09-15T19:44:46.465Z,100102
2017-09-15T19:47:16.872Z,100101
2017-09-15T19:49:46.948Z,100094
2017-09-15T19:52:17.235Z,100100
2017-09-15T19:54:47.158Z,100090
2017-09-15T19:57:17.585Z,100084
2017-09-15T19:59:47.650Z,100094
2017-09-15T20:02:18.013Z,100093
2017-09-15T20:04:47.920Z,100094
2017-09-15T20:07:18.210Z,100097
2017-09-15T20:09:48.408Z,100099
2017-09-15T20:12:18.748Z,100095
2017-09-15T20:14:48.701Z,100098
2017-09-15T20:17:18.995Z,100111
2017-09-15T20:19:48.898Z,100093
2017-09-15T20:22:19.304Z,100098
2017-09-15T20:24:50.281Z,100091
2017-09-15T20:27:20.711Z,100098
2017-09-15T20:29:50.623Z,100093
2017-09-15T20:32:21.066Z,100094
2017-09-15T20:34:51.012Z,100092
2017-09-15T20:37:21.303Z,100099
2017-09-15T20:39:51.279Z,100094
2017-09-15T20:42:21.622Z,100109
2017-09-15T20:44:51.545Z,100107
2017-09-15T20:47:21.868Z,100101
2017-09-15T20:49:51.782Z,100102
2017-09-15T20:52:22.090Z,100101
2017-09-15T20:54:51.984Z,100099
2017-09-15T20:57:22.306Z,99945
2017-09-15T20:59:52.214Z,100108
2017-09-15T21:02:22.554Z,100099
2017-09-15T21:04:52.465Z,100106
2017-09-15T21:07:22.812Z,100112
2017-09-15T21:09:52.720Z,100109
2017-09-15T21:12:23.966Z,100121
2017-09-15T21:14:53.948Z,100123
2017-09-15T21:17:24.360Z,100125
2017-09-15T21:19:54.564Z,100118
2017-09-15T21:22:24.773Z,100128
2017-09-15T21:24:54.666Z,100126
2017-09-15T21:27:25.029Z,100131
2017-09-15T21:29:55.126Z,100130
2017-09-15T21:32:25.410Z,100130
2017-09-15T21:34:55.288Z,100144
2017-09-15T21:37:25.219Z,100116
2017-09-15T21:39:56.056Z,100121
2017-09-15T21:42:25.992Z,100119
2017-09-15T21:44:56.405Z,100118
2017-09-15T21:47:26.327Z,100113
2017-09-15T21:49:56.701Z,100117
2017-09-15T21:52:26.711Z,100112
2017-09-15T21:54:57.236Z,100113
2017-09-15T21:57:27.171Z,100114
2017-09-15T21:59:57.550Z,100112
2017-09-15T22:02:27.447Z,100114
2017-09-15T22:04:57.812Z,100107
2017-09-15T22:07:27.690Z,100108
2017-09-15T22:09:58.072Z,100109
2017-09-15T22:12:28.036Z,100112
2017-09-15T22:14:58.289Z,100107
2017-09-15T22:17:28.519Z,100115
2017-09-15T22:19:58.779Z,100115
2017-09-15T22:22:28.670Z,100114
2017-09-15T22:24:59.025Z,100115
2017-09-15T22:27:28.920Z,100113
2017-09-15T22:29:59.263Z,100117
2017-09-15T22:32:29.135Z,100115
2017-09-15T22:34:59.506Z,100108
2017-09-15T22:37:29.479Z,100118
2017-09-15T22:39:59.723Z,100117
2017-09-15T22:42:29.630Z,100128
2017-09-15T22:44:59.917Z,100114
2017-09-15T22:47:29.825Z,100126
2017-09-15T22:50:00.069Z,100121
2017-09-15T22:52:29.997Z,100125
2017-09-15T22:55:00.210Z,100120
2017-09-15T22:57:30.195Z,100119
2017-09-15T23:00:00.570Z,100114
2017-09-15T23:02:30.562Z,100115
2017-09-15T23:05:00.808Z,100112
2017-09-15T23:10:07.296Z,100083
2017-09-15T23:12:37.200Z,100116
2017-09-15T23:15:07.289Z,100109
2017-09-15T23:17:37.808Z,100110
2017-09-15T23:20:07.964Z,100118
2017-09-15T23:22:38.504Z,100117
2017-09-15T23:25:08.539Z,100110
2017-09-15T23:27:39.758Z,100115
2017-09-15T23:30:17.111Z,100113
2017-09-15T23:32:47.995Z,100115
2017-09-15T23:35:23.518Z,100116
2017-09-15T23:37:53.876Z,100114
2017-09-15T23:40:24.100Z,100115
2017-09-15T23:42:57.106Z,100119
2017-09-15T23:45:27.300Z,100118
2017-09-15T23:47:57.638Z,100119
2017-09-15T23:50:27.582Z,100119
2017-09-15T23:52:58.011Z,100109
2017-09-15T23:55:27.960Z,100112
2017-09-15T23:57:58.267Z,100111
